Time;durP1;ratioP1;P1;durP2;ratioP2;P2;SDS_P1;SDS_P2;PMS_P1;PMS_P2;Temp;Humidity;BMP_temperature;BMP_pressure;BME280_temperature;BME280_humidity;BME280_pressure;Samples;Min_cycle;Max_cycle;Signal;HPM_P1;HPM_P2
2023/07/28 00:02:14;;;;;;;3.97;2.43;;;18.50;98.00;;;;;;4992484;28;20532;-68
2023/07/28 00:04:42;;;;;;;3.40;2.40;;;18.50;98.00;;;;;;4995501;28;20449;-68
2023/07/28 00:07:11;;;;;;;3.93;2.53;;;18.50;98.00;;;;;;4995430;28;20480;-67
2023/07/28 00:09:44;;;;;;;4.40;2.83;;;18.50;98.00;;;;;;4995312;28;20459;-67
2023/07/28 00:12:18;;;;;;;3.40;2.40;;;18.50;98.00;;;;;;4995612;28;20522;-67
2023/07/28 00:14:47;;;;;;;3.57;2.30;;;18.40;98.00;;;;;;4995505;28;20468;-68
2023/07/28 00:17:18;;;;;;;3.90;2.63;;;18.40;98.00;;;;;;4995518;28;20463;-68
2023/07/28 00:19:48;;;;;;;3.63;2.50;;;18.30;98.00;;;;;;4995356;28;20460;-68
2023/07/28 00:22:17;;;;;;;3.70;2.60;;;18.40;98.00;;;;;;4995481;28;20464;-67
2023/07/28 00:24:49;;;;;;;4.37;2.77;;;18.30;98.00;;;;;;4995222;28;20456;-68
2023/07/28 00:27:19;;;;;;;3.10;2.37;;;18.30;98.00;;;;;;4995225;28;20489;-68
2023/07/28 00:29:48;;;;;;;3.30;2.33;;;18.30;98.00;;;;;;4995442;28;20459;-67
2023/07/28 00:32:21;;;;;;;3.40;2.53;;;18.20;98.00;;;;;;4995327;28;20455;-67
2023/07/28 00:34:49;;;;;;;3.33;2.50;;;18.20;98.00;;;;;;4995130;28;20469;-67
2023/07/28 00:37:18;;;;;;;5.20;2.97;;;18.20;98.00;;;;;;4995243;28;20457;-67
2023/07/28 00:39:49;;;;;;;4.10;2.80;;;18.20;98.00;;;;;;4994789;28;20460;-67
2023/07/28 00:42:21;;;;;;;4.63;2.80;;;18.20;98.00;;;;;;4994877;28;20471;-68
2023/07/28 00:44:55;;;;;;;3.73;2.50;;;18.20;98.00;;;;;;4994865;28;20471;-67
2023/07/28 00:47:24;;;;;;;5.97;3.07;;;18.20;98.00;;;;;;4994755;28;20483;-67
2023/07/28 00:49:53;;;;;;;3.93;2.90;;;18.00;98.00;;;;;;4993291;28;20536;-67
2023/07/28 00:52:21;;;;;;;4.27;2.70;;;18.00;98.00;;;;;;4994855;28;20500;-68
2023/07/28 00:54:50;;;;;;;3.33;2.63;;;18.00;98.00;;;;;;4994616;28;20452;-68
2023/07/28 00:57:28;;;;;;;4.10;2.70;;;18.00;98.00;;;;;;4994668;28;20543;-68
2023/07/28 00:59:57;;;;;;;3.10;2.40;;;18.00;98.00;;;;;;4994571;28;20456;-68
2023/07/28 01:02:28;;;;;;;4.30;3.00;;;17.90;98.00;;;;;;4994608;28;20552;-68
2023/07/28 01:04:59;;;;;;;3.40;2.50;;;17.80;98.00;;;;;;4994471;28;20464;-67
2023/07/28 01:07:32;;;;;;;3.93;2.57;;;17.80;98.00;;;;;;4994412;28;20488;-68
2023/07/28 01:10:07;;;;;;;6.60;3.30;;;17.70;98.00;;;;;;4994384;28;20464;-67
2023/07/28 01:12:43;;;;;;;4.50;3.10;;;17.80;98.00;;;;;;4994565;28;20460;-67
2023/07/28 01:15:14;;;;;;;4.47;3.10;;;17.80;98.00;;;;;;4993803;28;20460;-67
2023/07/28 01:17:45;;;;;;;3.40;2.60;;;17.80;98.00;;;;;;4994459;28;20488;-67
2023/07/28 01:20:14;;;;;;;6.70;3.00;;;17.80;98.00;;;;;;4994352;28;20468;-67
2023/07/28 01:22:56;;;;;;;5.70;3.00;;;17.70;98.00;;;;;;4993360;28;20468;-68
2023/07/28 01:25:35;;;;;;;7.60;3.10;;;17.70;98.00;;;;;;4994320;28;20510;-67
2023/07/28 01:28:06;;;;;;;4.20;2.70;;;17.70;98.00;;;;;;4994028;28;20494;-68
2023/07/28 01:30:40;;;;;;;4.27;2.60;;;17.70;98.00;;;;;;4994035;28;20465;-68
2023/07/28 01:33:11;;;;;;;5.17;3.23;;;17.70;98.00;;;;;;4993885;28;20461;-68
2023/07/28 01:35:40;;;;;;;4.73;2.93;;;17.70;98.00;;;;;;4993974;28;20456;-67
2023/07/28 01:38:12;;;;;;;3.90;2.90;;;17.90;98.00;;;;;;4993808;28;20456;-67
2023/07/28 01:40:41;;;;;;;6.33;3.20;;;17.80;98.00;;;;;;4993712;28;20456;-67
2023/07/28 01:43:11;;;;;;;4.17;2.80;;;17.70;98.00;;;;;;4993127;28;20464;-67
2023/07/28 01:45:39;;;;;;;3.13;2.37;;;17.50;98.00;;;;;;4993633;28;20449;-68
2023/07/28 01:48:09;;;;;;;3.90;2.60;;;17.50;98.00;;;;;;4993718;28;20489;-67
2023/07/28 01:50:38;;;;;;;5.43;2.90;;;17.50;98.00;;;;;;4993655;28;20550;-67
2023/07/28 01:53:08;;;;;;;5.00;3.13;;;17.40;98.00;;;;;;4993761;28;20471;-68
2023/07/28 01:55:37;;;;;;;4.20;2.90;;;17.50;98.00;;;;;;4993612;28;20488;-67
2023/07/28 01:58:10;;;;;;;4.53;2.90;;;17.50;98.00;;;;;;4993363;28;20464;-67
2023/07/28 02:00:39;;;;;;;7.50;2.83;;;17.40;98.00;;;;;;4993664;28;20460;-68
2023/07/28 02:03:09;;;;;;;4.67;2.50;;;17.40;98.00;;;;;;4993428;28;20551;-68
2023/07/28 02:05:40;;;;;;;4.60;2.87;;;17.30;98.00;;;;;;4993524;28;20560;-67
2023/07/28 02:08:13;;;;;;;5.60;2.50;;;17.20;98.00;;;;;;4993490;28;21066;-67
2023/07/28 02:10:45;;;;;;;3.83;2.67;;;17.20;98.00;;;;;;4993254;28;20467;-67
2023/07/28 02:13:17;;;;;;;3.70;2.57;;;17.10;98.00;;;;;;4993588;28;20473;-67
2023/07/28 02:15:48;;;;;;;4.03;2.77;;;17.00;98.00;;;;;;4993372;28;20539;-67
2023/07/28 02:18:21;;;;;;;4.70;2.60;;;17.10;98.00;;;;;;4993375;28;20467;-67
2023/07/28 02:20:50;;;;;;;3.50;2.70;;;17.10;98.00;;;;;;4992893;28;20468;-67
2023/07/28 02:23:22;;;;;;;4.50;2.60;;;17.00;98.00;;;;;;4993092;28;20905;-67
2023/07/28 02:25:52;;;;;;;3.83;2.73;;;16.90;98.00;;;;;;4992127;28;20468;-67
2023/07/28 02:28:22;;;;;;;4.30;2.53;;;16.90;98.00;;;;;;4992769;28;20504;-68
2023/07/28 02:30:50;;;;;;;6.23;2.90;;;16.90;98.00;;;;;;4993049;28;20460;-67
2023/07/28 02:33:19;;;;;;;3.27;2.30;;;16.80;98.00;;;;;;4992884;28;20468;-67
2023/07/28 02:35:48;;;;;;;3.23;2.33;;;16.80;98.00;;;;;;4992653;28;20464;-67
2023/07/28 02:38:17;;;;;;;3.97;2.50;;;16.80;98.00;;;;;;4992914;28;20464;-67
2023/07/28 02:40:45;;;;;;;4.03;2.60;;;16.90;98.00;;;;;;4992537;28;20448;-67
2023/07/28 02:43:16;;;;;;;3.50;2.70;;;16.90;98.00;;;;;;4992789;28;20464;-67
2023/07/28 02:45:54;;;;;;;3.47;2.40;;;16.90;98.00;;;;;;4992650;28;20500;-67
2023/07/28 02:48:23;;;;;;;5.00;2.80;;;16.90;98.00;;;;;;4992567;28;20488;-67
2023/07/28 02:50:54;;;;;;;4.43;2.67;;;16.80;98.00;;;;;;4992886;28;21348;-67
2023/07/28 02:53:24;;;;;;;4.10;2.73;;;16.90;98.00;;;;;;4992707;28;20463;-68
2023/07/28 02:55:59;;;;;;;3.83;2.50;;;16.80;98.00;;;;;;4992218;28;20496;-67
2023/07/28 02:58:27;;;;;;;3.30;2.53;;;16.80;98.00;;;;;;4992673;28;20463;-67
2023/07/28 03:00:58;;;;;;;3.43;2.40;;;16.90;98.00;;;;;;4992766;28;20471;-67
2023/07/28 03:03:28;;;;;;;3.90;2.80;;;16.90;98.00;;;;;;4992622;28;20465;-67
2023/07/28 03:05:57;;;;;;;12.17;2.53;;;16.90;98.00;;;;;;4992642;28;20461;-67
2023/07/28 03:08:26;;;;;;;7.10;2.63;;;16.80;98.00;;;;;;4992696;28;20574;-68
2023/07/28 03:11:02;;;;;;;5.97;2.73;;;17.00;98.00;;;;;;4992646;28;20544;-68
2023/07/28 03:13:31;;;;;;;6.13;2.93;;;17.00;98.00;;;;;;4992603;28;20460;-67
2023/07/28 03:16:01;;;;;;;9.77;2.47;;;17.00;98.00;;;;;;4992364;28;20456;-67
2023/07/28 03:18:30;;;;;;;3.60;2.70;;;16.90;98.00;;;;;;4975246;28;20456;-67
2023/07/28 03:20:59;;;;;;;3.70;2.67;;;16.90;98.00;;;;;;4992237;28;20460;-67
2023/07/28 03:23:30;;;;;;;4.10;2.50;;;17.00;98.00;;;;;;4992229;28;20471;-67
2023/07/28 03:25:59;;;;;;;3.40;2.40;;;17.10;98.00;;;;;;4992311;28;20895;-67
2023/07/28 03:28:28;;;;;;;4.17;2.50;;;17.00;98.00;;;;;;4992097;28;20500;-68
2023/07/28 03:30:57;;;;;;;4.20;2.40;;;17.10;98.00;;;;;;4992060;28;20897;-67
2023/07/28 03:33:28;;;;;;;3.83;2.70;;;17.10;98.00;;;;;;4991910;28;20465;-67
2023/07/28 03:35:57;;;;;;;4.33;3.03;;;17.00;98.00;;;;;;4992142;28;20519;-67
2023/07/28 03:38:28;;;;;;;4.63;2.87;;;17.10;98.00;;;;;;4994615;28;20463;-67
2023/07/28 03:40:59;;;;;;;4.20;2.67;;;17.10;98.00;;;;;;4995988;28;20464;-67
2023/07/28 03:43:27;;;;;;;3.87;2.70;;;17.10;98.00;;;;;;4996036;28;20456;-67
2023/07/28 03:45:56;;;;;;;3.83;2.50;;;17.10;98.00;;;;;;4995902;28;20464;-67
2023/07/28 03:48:26;;;;;;;5.30;2.57;;;17.10;98.00;;;;;;4995819;28;20484;-67
2023/07/28 03:50:54;;;;;;;3.80;2.67;;;17.00;98.00;;;;;;4995987;28;20535;-67
2023/07/28 03:53:22;;;;;;;3.80;2.67;;;17.00;98.00;;;;;;4995315;28;20543;-68
2023/07/28 03:55:52;;;;;;;4.07;2.50;;;17.00;98.00;;;;;;5015324;28;20538;-67
2023/07/28 03:58:20;;;;;;;3.33;2.47;;;17.00;98.00;;;;;;5015457;28;20467;-67
2023/07/28 04:00:49;;;;;;;4.43;2.40;;;17.10;98.00;;;;;;5015718;28;20467;-67
2023/07/28 04:03:19;;;;;;;3.40;2.50;;;17.40;98.00;;;;;;5015736;28;20535;-67
2023/07/28 04:05:49;;;;;;;3.53;2.77;;;17.40;98.00;;;;;;5015404;28;20499;-67
2023/07/28 04:08:18;;;;;;;4.77;2.80;;;17.40;98.00;;;;;;5015490;28;20494;-67
2023/07/28 04:10:47;;;;;;;5.13;2.70;;;17.40;98.00;;;;;;5014536;28;20470;-67
2023/07/28 04:13:16;;;;;;;4.17;2.70;;;17.30;98.00;;;;;;5013961;28;20460;-67
2023/07/28 04:15:47;;;;;;;4.00;2.80;;;17.20;98.00;;;;;;5015024;28;20451;-68
2023/07/28 04:18:19;;;;;;;4.17;2.87;;;17.10;98.00;;;;;;5014998;28;20463;-67
2023/07/28 04:20:49;;;;;;;3.20;2.63;;;17.10;98.00;;;;;;5014974;28;20517;-67
2023/07/28 04:23:18;;;;;;;3.50;2.70;;;17.10;98.00;;;;;;5014984;28;20487;-67
2023/07/28 04:25:50;;;;;;;4.30;2.93;;;17.10;98.00;;;;;;5014777;28;20459;-67
2023/07/28 04:28:24;;;;;;;3.27;2.40;;;17.00;98.00;;;;;;5014787;28;21048;-67
2023/07/28 04:30:53;;;;;;;3.77;2.70;;;17.00;98.00;;;;;;5014632;28;20455;-67
2023/07/28 04:33:22;;;;;;;4.50;2.57;;;17.00;98.00;;;;;;5013560;28;20558;-67
2023/07/28 04:35:54;;;;;;;4.83;2.77;;;17.00;98.00;;;;;;5014683;28;20463;-67
2023/07/28 04:38:23;;;;;;;4.00;2.70;;;17.10;98.00;;;;;;5014576;28;20458;-67
2023/07/28 04:40:52;;;;;;;4.93;2.87;;;17.20;98.00;;;;;;5014537;28;20466;-67
2023/07/28 04:43:23;;;;;;;3.63;2.47;;;17.30;98.00;;;;;;5014670;28;20456;-67
2023/07/28 04:45:52;;;;;;;4.47;2.90;;;17.30;98.00;;;;;;5014570;28;20499;-68
2023/07/28 04:48:23;;;;;;;3.53;2.50;;;17.40;98.00;;;;;;5014287;28;20488;-68
2023/07/28 04:50:53;;;;;;;4.70;2.90;;;17.40;98.00;;;;;;5014008;28;20467;-67
2023/07/28 04:53:28;;;;;;;5.27;3.27;;;17.40;98.00;;;;;;5014479;28;20468;-68
2023/07/28 04:55:57;;;;;;;3.63;2.90;;;17.50;98.00;;;;;;5014378;28;20455;-67
2023/07/28 04:58:26;;;;;;;4.10;2.87;;;17.50;98.00;;;;;;5013397;28;20469;-67
2023/07/28 05:00:55;;;;;;;3.50;2.57;;;17.60;98.00;;;;;;5014516;28;20447;-67
2023/07/28 05:03:24;;;;;;;4.03;2.77;;;17.50;98.00;;;;;;5014270;28;20467;-67
2023/07/28 05:05:54;;;;;;;3.63;2.50;;;17.50;98.00;;;;;;5013766;28;20466;-67
2023/07/28 05:08:23;;;;;;;4.53;2.57;;;17.50;98.00;;;;;;5012728;28;20495;-67
2023/07/28 05:10:52;;;;;;;4.63;2.70;;;17.50;98.00;;;;;;5014223;28;20538;-68
2023/07/28 05:13:21;;;;;;;3.97;2.70;;;17.50;98.00;;;;;;5013929;28;20460;-67
2023/07/28 05:15:49;;;;;;;3.70;2.67;;;17.50;98.00;;;;;;5013767;28;20463;-67
2023/07/28 05:18:18;;;;;;;5.20;3.13;;;17.40;98.00;;;;;;5013765;28;20543;-67
2023/07/28 05:20:48;;;;;;;4.60;2.90;;;17.40;98.00;;;;;;5013301;28;20456;-67
2023/07/28 05:23:18;;;;;;;3.50;2.67;;;17.40;98.00;;;;;;5013870;28;20602;-67
2023/07/28 05:25:47;;;;;;;4.53;3.00;;;17.50;98.00;;;;;;5013607;28;20460;-67
2023/07/28 05:28:18;;;;;;;3.10;2.43;;;17.50;98.00;;;;;;5013349;28;20491;-67
2023/07/28 05:30:48;;;;;;;3.70;2.50;;;17.50;98.00;;;;;;5013481;28;20466;-67
2023/07/28 05:33:17;;;;;;;8.13;2.80;;;17.60;98.00;;;;;;5013730;28;20539;-67
2023/07/28 05:35:46;;;;;;;4.47;2.80;;;17.70;98.00;;;;;;5013405;28;20463;-67
2023/07/28 05:38:21;;;;;;;6.13;2.50;;;17.80;98.00;;;;;;5013672;28;20815;-67
2023/07/28 05:41:05;;;;;;;2.93;2.30;;;17.90;98.00;;;;;;5011941;28;20479;-68
2023/07/28 05:43:47;;;;;;;3.50;2.63;;;18.00;98.00;;;;;;5013511;28;20459;-67
2023/07/28 05:46:15;;;;;;;4.10;2.70;;;17.90;98.00;;;;;;5013344;28;20463;-68
2023/07/28 05:48:45;;;;;;;3.90;2.40;;;17.80;98.00;;;;;;5013252;28;20578;-67
2023/07/28 05:51:14;;;;;;;6.90;2.93;;;17.80;98.00;;;;;;5013511;28;20464;-67
2023/07/28 05:53:44;;;;;;;4.77;2.83;;;17.80;98.00;;;;;;5013204;28;20465;-67
2023/07/28 05:56:13;;;;;;;4.20;2.90;;;17.80;98.00;;;;;;5013603;28;20887;-67
2023/07/28 05:58:42;;;;;;;5.87;3.00;;;17.80;98.00;;;;;;5011919;28;20467;-68
2023/07/28 06:01:14;;;;;;;3.93;2.77;;;17.80;98.00;;;;;;5012847;28;20463;-63
2023/07/28 06:03:42;;;;;;;4.40;3.07;;;17.80;98.00;;;;;;5013214;28;20455;-63
2023/07/28 06:06:15;;;;;;;5.67;3.33;;;18.00;98.00;;;;;;5012851;28;20470;-62
2023/07/28 06:08:52;;;;;;;5.63;3.40;;;18.20;98.00;;;;;;5012997;28;20522;-62
2023/07/28 06:11:23;;;;;;;5.20;3.50;;;18.30;98.00;;;;;;5013050;28;20551;-62
2023/07/28 06:13:53;;;;;;;4.80;3.17;;;18.20;98.00;;;;;;5012902;28;20456;-62
2023/07/28 06:16:24;;;;;;;5.87;3.40;;;18.10;98.00;;;;;;5012770;28;20463;-62
2023/07/28 06:18:53;;;;;;;7.80;3.80;;;18.20;98.00;;;;;;5012580;28;20479;-63
2023/07/28 06:21:24;;;;;;;4.50;3.30;;;18.20;98.00;;;;;;5012363;28;20497;-62
2023/07/28 06:23:55;;;;;;;4.63;3.10;;;18.30;98.00;;;;;;5010875;28;20463;-62
2023/07/28 06:26:24;;;;;;;5.03;3.30;;;18.40;98.00;;;;;;5011914;28;20464;-62
2023/07/28 06:28:52;;;;;;;3.67;2.77;;;18.30;98.00;;;;;;5011691;28;20495;-62
2023/07/28 06:31:23;;;;;;;3.60;2.53;;;18.30;98.00;;;;;;5011826;28;20486;-62
2023/07/28 06:33:54;;;;;;;4.90;3.47;;;18.30;98.00;;;;;;5011807;28;20475;-62
2023/07/28 06:36:27;;;;;;;6.03;3.60;;;18.40;98.00;;;;;;5011877;28;20451;-62
2023/07/28 06:39:00;;;;;;;4.57;2.80;;;18.30;98.00;;;;;;5010568;28;20474;-62
2023/07/28 06:41:29;;;;;;;5.60;3.20;;;18.20;98.00;;;;;;5011624;28;20455;-63
2023/07/28 06:43:58;;;;;;;7.80;3.10;;;18.20;98.00;;;;;;5010784;28;20458;-62
2023/07/28 06:46:31;;;;;;;4.23;2.90;;;18.20;98.00;;;;;;5011669;28;20470;-62
2023/07/28 06:49:03;;;;;;;4.53;3.10;;;18.30;98.00;;;;;;5011232;28;20484;-62
2023/07/28 06:51:33;;;;;;;5.60;3.60;;;18.20;98.00;;;;;;5011816;28;20543;-62
2023/07/28 06:54:03;;;;;;;5.40;3.67;;;18.20;98.00;;;;;;5011522;28;20455;-62
2023/07/28 06:56:38;;;;;;;5.30;3.50;;;18.20;98.00;;;;;;5010215;28;20456;-62
2023/07/28 06:59:09;;;;;;;5.10;3.33;;;18.20;98.00;;;;;;5011664;28;20545;-62
2023/07/28 07:01:40;;;;;;;4.83;3.13;;;18.30;98.00;;;;;;5011473;28;20474;-62
2023/07/28 07:04:11;;;;;;;8.57;3.40;;;18.40;98.00;;;;;;5011482;28;20456;-62
2023/07/28 07:06:39;;;;;;;7.47;3.60;;;18.60;98.00;;;;;;5011196;28;21025;-62
2023/07/28 07:09:09;;;;;;;4.73;3.13;;;18.60;98.00;;;;;;5011584;28;21083;-63
2023/07/28 07:11:38;;;;;;;5.00;3.40;;;18.50;98.00;;;;;;5010903;28;20452;-62
2023/07/28 07:14:07;;;;;;;7.07;3.70;;;18.50;98.00;;;;;;5011181;28;20458;-62
2023/07/28 07:16:37;;;;;;;5.00;3.47;;;18.60;98.00;;;;;;5011151;28;20452;-62
2023/07/28 07:19:06;;;;;;;5.30;3.20;;;18.60;98.00;;;;;;5011719;28;20583;-62
2023/07/28 07:21:33;;;;;;;6.87;4.57;;;18.50;98.00;;;;;;5010092;28;20463;-63
2023/07/28 07:24:04;;;;;;;9.80;5.87;;;18.40;98.00;;;;;;5010107;28;20462;-63
2023/07/28 07:26:35;;;;;;;5.40;3.70;;;18.40;98.00;;;;;;5011244;28;20462;-62
2023/07/28 07:29:04;;;;;;;5.37;3.10;;;18.40;98.00;;;;;;5006128;28;20500;-62
2023/07/28 07:31:34;;;;;;;5.63;3.60;;;18.50;98.00;;;;;;4991244;28;20453;-63
2023/07/28 07:34:04;;;;;;;5.47;3.40;;;18.50;98.00;;;;;;4991296;28;20457;-63
2023/07/28 07:36:33;;;;;;;4.50;3.40;;;18.60;98.00;;;;;;4991430;28;20453;-62
2023/07/28 07:39:02;;;;;;;4.97;3.07;;;18.70;98.00;;;;;;4991437;28;20464;-62
2023/07/28 07:41:36;;;;;;;4.30;3.20;;;18.80;98.00;;;;;;4991295;28;20467;-62
2023/07/28 07:44:08;;;;;;;7.83;3.60;;;19.10;98.00;;;;;;4991381;28;20449;-62
2023/07/28 07:46:37;;;;;;;5.70;3.20;;;19.10;98.00;;;;;;4991891;28;20470;-62
2023/07/28 07:49:06;;;;;;;9.03;3.90;;;19.10;98.00;;;;;;4992044;28;20492;-63
2023/07/28 07:51:35;;;;;;;5.80;3.37;;;19.30;98.00;;;;;;4991754;28;20559;-63
2023/07/28 07:54:08;;;;;;;6.80;3.87;;;19.50;98.00;;;;;;4992115;28;20460;-62
2023/07/28 07:56:41;;;;;;;4.27;3.43;;;19.40;98.00;;;;;;4991707;28;20576;-63
2023/07/28 08:01:56;;;;;;;5.53;3.80;;;19.70;98.00;;;;;;4991369;28;20978;-62
2023/07/28 08:04:27;;;;;;;6.23;3.67;;;19.70;98.00;;;;;;4991951;28;20522;-63
2023/07/28 08:06:56;;;;;;;4.90;3.57;;;19.80;98.00;;;;;;4990852;28;20539;-63
2023/07/28 08:09:25;;;;;;;4.47;3.17;;;19.80;98.00;;;;;;4993872;28;20492;-63
2023/07/28 08:11:58;;;;;;;7.97;3.97;;;19.90;98.00;;;;;;5011358;28;20880;-63
2023/07/28 08:14:28;;;;;;;6.83;3.27;;;20.00;98.00;;;;;;5011287;28;20553;-62
2023/07/28 08:16:57;;;;;;;5.27;3.37;;;20.00;98.00;;;;;;5010643;28;20522;-63
2023/07/28 08:19:25;;;;;;;9.57;3.80;;;20.10;98.00;;;;;;5009380;28;20466;-63
2023/07/28 08:21:58;;;;;;;5.60;3.40;;;20.20;98.00;;;;;;4999956;28;20451;-63
2023/07/28 08:24:27;;;;;;;5.70;3.60;;;20.30;98.00;;;;;;4998758;28;20467;-62
2023/07/28 08:27:03;;;;;;;6.87;3.87;;;20.40;98.00;;;;;;5013673;28;20462;-62
2023/07/28 08:29:32;;;;;;;6.50;3.90;;;20.50;98.00;;;;;;5014687;28;20496;-63
2023/07/28 08:32:00;;;;;;;6.30;3.73;;;20.40;98.00;;;;;;5014767;28;20466;-63
2023/07/28 08:34:32;;;;;;;6.00;3.50;;;20.30;98.00;;;;;;5014678;28;20474;-62
2023/07/28 08:37:02;;;;;;;5.80;3.40;;;20.20;98.00;;;;;;5013597;28;20468;-63
2023/07/28 08:39:29;;;;;;;7.00;3.63;;;20.20;98.00;;;;;;5014677;28;20492;-64
2023/07/28 08:42:04;;;;;;;5.83;3.63;;;20.10;98.00;;;;;;5014686;28;20549;-65
2023/07/28 08:44:35;;;;;;;7.23;3.83;;;20.00;98.00;;;;;;5014290;28;20462;-63
2023/07/28 08:47:04;;;;;;;4.70;3.13;;;20.00;98.00;;;;;;5014133;28;20472;-64
2023/07/28 08:49:35;;;;;;;5.13;3.43;;;19.90;98.00;;;;;;5014146;28;20522;-66
2023/07/28 08:52:03;;;;;;;5.13;3.20;;;19.80;98.00;;;;;;5013553;28;20806;-64
2023/07/28 08:54:32;;;;;;;6.63;3.63;;;19.90;98.00;;;;;;5013784;28;20470;-63
2023/07/28 08:57:00;;;;;;;6.20;3.57;;;20.10;98.00;;;;;;5013758;28;20464;-63
2023/07/28 08:59:35;;;;;;;5.20;3.40;;;20.10;98.00;;;;;;5014110;28;20456;-63
2023/07/28 09:02:04;;;;;;;5.83;3.67;;;20.20;98.00;;;;;;5014091;28;20461;-63
2023/07/28 09:04:32;;;;;;;5.53;3.33;;;20.40;98.00;;;;;;5013402;28;20957;-64
2023/07/28 09:07:03;;;;;;;9.70;3.40;;;20.40;98.00;;;;;;5013837;28;20470;-63
2023/07/28 09:09:36;;;;;;;7.70;3.90;;;20.50;98.00;;;;;;5013369;28;20497;-63
2023/07/28 09:12:06;;;;;;;13.30;4.57;;;20.50;98.00;;;;;;5013578;28;20539;-63
2023/07/28 09:14:39;;;;;;;7.30;3.83;;;20.40;98.00;;;;;;5012772;28;20530;-64
2023/07/28 09:17:14;;;;;;;5.50;3.50;;;20.40;98.00;;;;;;5012997;28;20463;-63
2023/07/28 09:19:56;;;;;;;11.03;4.13;;;20.40;98.00;;;;;;5009679;28;20460;-63
2023/07/28 09:22:24;;;;;;;8.70;3.57;;;20.30;98.00;;;;;;4994101;28;20468;-63
2023/07/28 09:24:52;;;;;;;6.07;3.50;;;20.40;98.00;;;;;;4994039;28;20540;-63
2023/07/28 09:27:25;;;;;;;6.47;3.90;;;20.60;98.00;;;;;;4993957;28;20502;-63
2023/07/28 09:29:56;;;;;;;5.80;3.60;;;20.80;98.00;;;;;;4993922;28;20586;-63
2023/07/28 09:32:32;;;;;;;7.33;3.90;;;20.90;98.00;;;;;;4993991;28;20463;-63
2023/07/28 09:35:11;;;;;;;6.30;3.27;;;21.10;98.00;;;;;;4992271;28;20467;-63
2023/07/28 09:37:41;;;;;;;5.53;3.47;;;21.20;98.00;;;;;;4994131;28;20456;-63
2023/07/28 10:22:01;;;;;;;6.63;3.60;;;22.70;98.00;;;;;;5037310;23;20474;-65
2023/07/28 10:24:51;;;;;;;4.50;3.00;;;22.80;98.00;;;;;;5031971;28;20269;-65
2023/07/28 10:27:31;;;;;;;6.27;3.23;;;22.80;98.00;;;;;;5032383;28;20968;-66
2023/07/28 10:30:01;;;;;;;6.07;3.60;;;23.00;98.00;;;;;;5032378;28;20482;-66
2023/07/28 10:32:29;;;;;;;4.60;3.23;;;23.00;98.00;;;;;;5015726;28;20459;-66
2023/07/28 10:35:06;;;;;;;5.67;3.27;;;23.10;98.00;;;;;;5012648;28;20448;-64
2023/07/28 10:37:36;;;;;;;4.60;3.17;;;23.20;98.00;;;;;;5012631;28;20521;-67
2023/07/28 10:40:23;;;;;;;4.80;2.90;;;23.10;98.00;;;;;;5012837;28;20463;-67
2023/07/28 10:42:50;;;;;;;4.87;2.77;;;23.00;98.00;;;;;;5011824;28;20813;-65
2023/07/28 10:45:21;;;;;;;5.60;3.50;;;23.10;98.00;;;;;;5012405;28;20455;-66
2023/07/28 10:47:49;;;;;;;4.30;2.93;;;23.10;98.00;;;;;;5011984;28;20460;-65
2023/07/28 10:50:16;;;;;;;4.27;3.13;;;23.10;98.00;;;;;;5012438;28;20480;-66
2023/07/28 10:52:46;;;;;;;3.93;2.97;;;23.20;98.00;;;;;;5012421;28;20463;-66
2023/07/28 10:55:15;;;;;;;8.00;3.07;;;23.50;98.00;;;;;;5011877;28;20530;-65
2023/07/28 10:57:43;;;;;;;5.23;3.30;;;23.50;98.00;;;;;;5012384;28;21009;-69
2023/07/28 11:00:12;;;;;;;4.87;3.17;;;23.60;98.00;;;;;;5010986;28;20997;-67
2023/07/28 11:02:42;;;;;;;6.40;2.97;;;23.70;98.00;;;;;;5012357;28;20883;-66
2023/07/28 11:05:13;;;;;;;4.20;2.90;;;23.80;98.00;;;;;;5012354;28;20467;-66
2023/07/28 11:07:45;;;;;;;4.33;3.00;;;23.80;98.00;;;;;;5011483;28;20525;-67
2023/07/28 11:10:13;;;;;;;4.90;3.17;;;23.60;98.00;;;;;;5011406;28;20498;-66
2023/07/28 11:12:43;;;;;;;3.57;2.43;;;23.40;98.00;;;;;;5011853;28;20456;-65
2023/07/28 11:15:12;;;;;;;5.60;2.83;;;23.30;98.00;;;;;;5011462;28;20882;-66
2023/07/28 11:17:40;;;;;;;4.40;2.90;;;23.20;98.00;;;;;;5011484;28;20448;-66
2023/07/28 11:20:16;;;;;;;4.00;2.60;;;23.10;98.00;;;;;;5010980;28;20830;-66
2023/07/28 11:22:45;;;;;;;4.73;2.60;;;23.00;98.00;;;;;;5011065;28;20565;-66
2023/07/28 11:25:13;;;;;;;5.50;2.90;;;22.90;98.00;;;;;;5011415;28;20937;-66
2023/07/28 11:27:40;;;;;;;3.80;2.60;;;23.00;98.00;;;;;;5011164;28;20464;-65
2023/07/28 11:30:10;;;;;;;2.63;2.20;;;23.10;98.00;;;;;;5011185;28;20496;-66
2023/07/28 11:32:38;;;;;;;3.73;2.60;;;23.20;98.00;;;;;;5010968;28;20474;-66
2023/07/28 11:35:07;;;;;;;3.27;2.47;;;23.40;98.00;;;;;;5011363;28;20456;-67
2023/07/28 11:37:34;;;;;;;3.60;2.70;;;23.60;98.00;;;;;;5010906;28;21032;-69
2023/07/28 11:40:06;;;;;;;4.80;2.80;;;23.70;98.00;;;;;;5011673;28;20791;-66
2023/07/28 11:42:35;;;;;;;3.77;2.60;;;23.90;98.00;;;;;;5011093;28;20819;-66
2023/07/28 11:45:03;;;;;;;3.50;2.67;;;24.10;98.00;;;;;;5017657;28;20557;-67
2023/07/28 11:47:31;;;;;;;3.23;2.47;;;24.30;98.00;;;;;;5030901;28;20497;-67
2023/07/28 11:50:00;;;;;;;3.40;2.20;;;24.60;98.00;;;;;;5031100;28;20487;-65
2023/07/28 11:52:32;;;;;;;4.37;2.50;;;25.00;98.00;;;;;;5030935;28;20596;-68
2023/07/28 11:55:00;;;;;;;3.27;2.40;;;25.30;98.00;;;;;;5030764;28;20550;-65
2023/07/28 11:57:38;;;;;;;3.60;2.30;;;25.30;98.00;;;;;;5030427;28;20509;-67
2023/07/28 12:00:08;;;;;;;3.67;2.43;;;25.20;98.00;;;;;;5034664;28;20461;-66
2023/07/28 12:02:35;;;;;;;3.43;2.40;;;25.10;98.00;;;;;;5034983;28;20891;-68
2023/07/28 12:05:12;;;;;;;3.43;2.43;;;25.00;98.00;;;;;;5034497;28;20451;-66
2023/07/28 12:07:40;;;;;;;2.80;2.27;;;25.00;98.00;;;;;;5034713;28;20475;-67
2023/07/28 12:10:09;;;;;;;2.60;2.27;;;24.90;98.00;;;;;;5034179;28;21018;-66
2023/07/28 12:12:48;;;;;;;2.70;2.17;;;24.90;98.00;;;;;;5033374;28;20469;-69
2023/07/28 12:15:23;;;;;;;3.33;2.40;;;24.70;98.00;;;;;;5034354;28;20450;-66
2023/07/28 12:18:19;;;;;;;3.57;2.40;;;24.80;98.00;;;;;;5034362;28;20454;-67
2023/07/28 12:20:47;;;;;;;4.20;2.40;;;24.70;98.00;;;;;;4999020;28;20521;-66
2023/07/28 12:23:15;;;;;;;2.77;2.30;;;24.50;98.00;;;;;;5032943;28;20469;-65
2023/07/28 12:25:43;;;;;;;2.40;2.00;;;24.40;98.00;;;;;;5034246;28;20553;-68
2023/07/28 12:28:12;;;;;;;2.50;2.03;;;24.20;98.00;;;;;;5034181;28;20467;-65
2023/07/28 12:30:40;;;;;;;3.60;2.40;;;24.00;98.00;;;;;;5034174;28;20486;-67
2023/07/28 12:33:07;;;;;;;2.90;2.40;;;23.80;98.00;;;;;;5034360;28;20517;-66
2023/07/28 12:35:35;;;;;;;2.30;2.10;;;23.70;98.00;;;;;;5033851;28;20498;-67
2023/07/28 12:38:04;;;;;;;3.50;2.40;;;23.60;98.00;;;;;;5034271;28;20453;-66
2023/07/28 12:40:32;;;;;;;2.60;2.27;;;23.70;98.00;;;;;;5033772;28;20462;-67
2023/07/28 12:43:01;;;;;;;2.00;1.93;;;23.70;98.00;;;;;;5033947;28;20458;-66
2023/07/28 12:45:29;;;;;;;3.63;2.33;;;23.70;98.00;;;;;;5033731;28;20509;-66
2023/07/28 12:47:57;;;;;;;3.03;2.57;;;23.70;98.00;;;;;;5032647;28;20451;-68
2023/07/28 12:50:25;;;;;;;3.13;2.30;;;23.60;98.00;;;;;;5032507;28;20498;-65
2023/07/28 12:52:55;;;;;;;2.97;2.27;;;23.40;98.00;;;;;;5033774;28;20544;-67
2023/07/28 12:55:22;;;;;;;4.20;2.60;;;23.40;98.00;;;;;;5032265;28;20450;-66
2023/07/28 12:57:50;;;;;;;3.70;2.60;;;23.40;98.00;;;;;;5033694;28;20451;-65
2023/07/28 13:00:17;;;;;;;3.30;2.20;;;23.20;98.00;;;;;;5033822;28;20443;-66
2023/07/28 13:02:46;;;;;;;3.83;2.70;;;23.20;98.00;;;;;;5033625;28;21020;-65
2023/07/28 13:05:15;;;;;;;3.30;2.30;;;23.30;98.00;;;;;;5033892;28;20816;-65
2023/07/28 13:07:42;;;;;;;3.80;2.60;;;23.20;98.00;;;;;;5033670;28;20450;-67
2023/07/28 13:10:13;;;;;;;4.90;2.80;;;23.20;98.00;;;;;;5032469;28;20577;-66
2023/07/28 13:12:40;;;;;;;3.73;2.37;;;23.20;98.00;;;;;;5033359;28;20450;-66
2023/07/28 13:15:08;;;;;;;5.33;2.37;;;23.20;98.00;;;;;;5033213;28;20877;-67
2023/07/28 13:17:35;;;;;;;4.07;2.53;;;23.30;98.00;;;;;;5033237;28;20459;-67
2023/07/28 13:20:05;;;;;;;3.30;2.57;;;23.40;98.00;;;;;;5033010;28;20528;-67
2023/07/28 13:22:33;;;;;;;3.60;2.57;;;23.50;98.00;;;;;;5033143;28;20482;-67
2023/07/28 13:25:00;;;;;;;4.13;2.53;;;23.40;98.00;;;;;;5033073;28;20459;-67
2023/07/28 13:27:27;;;;;;;3.37;2.60;;;23.40;98.00;;;;;;5031736;28;20466;-66
2023/07/28 13:29:54;;;;;;;3.33;2.50;;;23.50;98.00;;;;;;5032219;28;20589;-65
2023/07/28 13:32:25;;;;;;;4.70;2.60;;;23.40;98.00;;;;;;5033132;28;20459;-66
2023/07/28 13:34:53;;;;;;;3.83;2.60;;;23.40;98.00;;;;;;5033509;28;20649;-66
2023/07/28 13:37:21;;;;;;;3.73;2.53;;;23.40;98.00;;;;;;5033418;28;20506;-65
2023/07/28 13:39:48;;;;;;;3.13;2.50;;;23.30;98.00;;;;;;5033554;28;20467;-66
2023/07/28 13:42:15;;;;;;;2.93;2.40;;;23.20;98.00;;;;;;5032215;28;20469;-66
2023/07/28 13:44:43;;;;;;;2.70;2.33;;;23.20;98.00;;;;;;5033316;28;20963;-68
2023/07/28 13:47:10;;;;;;;3.13;2.17;;;23.30;98.00;;;;;;5033064;28;20835;-68